createdAt,value
2019-06-26T00:02:12.473Z,84.60
2019-06-26T00:04:41.176Z,85.50
2019-06-26T00:07:09.844Z,85.40
2019-06-26T00:09:38.466Z,86.60
2019-06-26T00:12:07.342Z,87.00
2019-06-26T00:14:38.742Z,87.50
2019-06-26T00:17:06.419Z,87.80
2019-06-26T00:19:35.140Z,88.50
2019-06-26T00:22:03.879Z,89.10
2019-06-26T00:24:32.511Z,89.70
2019-06-26T00:27:01.193Z,89.50
2019-06-26T00:29:29.931Z,89.70
2019-06-26T00:31:58.574Z,90.20
2019-06-26T00:34:27.260Z,90.60
2019-06-26T00:36:55.882Z,90.80
2019-06-26T00:39:24.731Z,91.40
2019-06-26T00:41:53.374Z,91.80
2019-06-26T00:44:22.205Z,92.40
2019-06-26T00:46:50.824Z,92.70
2019-06-26T00:49:20.030Z,93.40
2019-06-26T00:51:48.661Z,93.70
2019-06-26T00:54:17.397Z,93.80
2019-06-26T00:56:46.017Z,93.80
2019-06-26T00:59:14.679Z,94.50
2019-06-26T01:01:43.316Z,94.80
2019-06-26T01:04:12.001Z,95.20
2019-06-26T01:06:40.689Z,95.80
2019-06-26T01:09:09.393Z,96.50
2019-06-26T01:11:38.201Z,97.20
2019-06-26T01:14:06.961Z,97.80
2019-06-26T01:16:35.686Z,98.20
2019-06-26T01:19:04.611Z,98.60
2019-06-26T01:21:33.231Z,99.10
2019-06-26T01:24:02.007Z,99.70
2019-06-26T01:26:30.704Z,99.90
2019-06-26T01:28:59.316Z,99.90
2019-06-26T01:31:28.146Z,99.90
2019-06-26T01:33:56.820Z,99.90
2019-06-26T01:36:25.645Z,99.90
2019-06-26T01:38:54.261Z,99.90
2019-06-26T01:41:23.072Z,99.90
2019-06-26T01:43:51.812Z,99.90
2019-06-26T01:46:20.478Z,99.90
2019-06-26T01:48:49.175Z,99.90
2019-06-26T01:51:17.844Z,99.90
2019-06-26T01:53:46.550Z,99.90
2019-06-26T01:56:15.243Z,99.90
2019-06-26T01:58:43.923Z,99.90
2019-06-26T02:01:12.710Z,99.90
2019-06-26T02:03:41.395Z,99.90
2019-06-26T02:06:10.082Z,99.90
2019-06-26T02:08:38.757Z,99.90
2019-06-26T02:11:07.453Z,99.90
2019-06-26T02:13:36.122Z,99.90
2019-06-26T02:16:05.214Z,99.90
2019-06-26T02:18:33.989Z,99.90
2019-06-26T02:21:02.865Z,99.90
2019-06-26T02:23:31.608Z,99.90
2019-06-26T02:26:00.293Z,99.90
2019-06-26T02:28:28.965Z,99.90
2019-06-26T02:30:57.659Z,99.90
2019-06-26T02:33:26.397Z,99.90
2019-06-26T02:35:55.072Z,99.90
2019-06-26T02:38:23.775Z,99.90
2019-06-26T02:40:52.619Z,99.90
2019-06-26T02:43:21.303Z,99.90
2019-06-26T02:45:49.980Z,99.90
2019-06-26T02:48:18.677Z,99.90
2019-06-26T02:50:47.415Z,99.90
2019-06-26T02:53:16.035Z,99.90
2019-06-26T02:55:44.707Z,99.90
2019-06-26T02:58:13.368Z,99.90
2019-06-26T03:00:42.225Z,99.90
2019-06-26T03:03:11.204Z,99.90
2019-06-26T03:05:39.865Z,99.90
2019-06-26T03:08:08.572Z,99.90
2019-06-26T03:10:37.243Z,99.90
2019-06-26T03:13:05.943Z,99.90
2019-06-26T03:15:34.615Z,99.90
2019-06-26T03:18:03.565Z,99.90
2019-06-26T03:20:37.027Z,99.90
2019-06-26T03:23:05.687Z,99.90
2019-06-26T03:25:34.309Z,99.90
2019-06-26T03:28:03.046Z,99.90
2019-06-26T03:30:31.736Z,99.90
2019-06-26T03:33:01.087Z,99.90
2019-06-26T03:35:29.823Z,99.90
2019-06-26T03:37:58.536Z,99.90
2019-06-26T03:40:27.235Z,99.90
2019-06-26T03:42:56.688Z,99.90
2019-06-26T03:45:26.573Z,99.90
2019-06-26T03:47:55.322Z,99.90
2019-06-26T03:50:23.996Z,99.90
2019-06-26T03:52:52.665Z,99.90
2019-06-26T03:55:21.278Z,99.90
2019-06-26T03:57:49.980Z,99.90
2019-06-26T04:00:29.106Z,99.90
2019-06-26T04:02:57.794Z,99.90
2019-06-26T04:05:26.603Z,99.90
2019-06-26T04:07:55.369Z,99.90
2019-06-26T04:10:24.061Z,99.90
2019-06-26T04:12:52.742Z,99.90
2019-06-26T04:15:21.569Z,99.90
2019-06-26T04:17:50.315Z,99.90
2019-06-26T04:20:18.935Z,99.90
2019-06-26T04:22:47.824Z,99.90
2019-06-26T04:25:16.569Z,99.90
2019-06-26T04:27:45.371Z,99.90
2019-06-26T04:30:15.696Z,99.90
2019-06-26T04:32:44.358Z,99.90
2019-06-26T04:35:13.534Z,99.90
2019-06-26T04:37:42.202Z,99.90
2019-06-26T04:40:11.256Z,99.90
2019-06-26T04:42:39.932Z,99.90
2019-06-26T04:45:10.507Z,99.90
2019-06-26T04:47:39.130Z,99.90
2019-06-26T04:50:09.299Z,99.90
2019-06-26T04:52:37.920Z,99.90
2019-06-26T04:55:07.672Z,99.90
2019-06-26T04:57:36.580Z,99.90
2019-06-26T05:00:07.171Z,99.90
2019-06-26T05:02:35.836Z,99.90
2019-06-26T05:05:08.024Z,99.90
2019-06-26T05:07:36.698Z,99.90
2019-06-26T05:10:08.231Z,99.90
2019-06-26T05:12:37.014Z,99.90
2019-06-26T05:15:08.025Z,99.90
2019-06-26T05:17:36.708Z,99.90
2019-06-26T05:20:09.412Z,99.90
2019-06-26T05:22:38.028Z,99.90
2019-06-26T05:25:08.511Z,99.90
2019-06-26T05:27:37.291Z,99.90
2019-06-26T05:30:10.484Z,99.90
2019-06-26T05:32:39.169Z,99.90
2019-06-26T05:35:08.557Z,99.90
2019-06-26T05:37:37.174Z,99.90
2019-06-26T05:40:11.197Z,99.90
2019-06-26T05:42:40.058Z,99.90
2019-06-26T05:45:10.227Z,99.90
2019-06-26T05:47:38.968Z,99.90
2019-06-26T05:50:08.845Z,99.90
2019-06-26T05:52:37.673Z,99.90
2019-06-26T05:55:07.408Z,99.90
2019-06-26T05:57:36.244Z,99.90
2019-06-26T06:00:09.854Z,99.90
2019-06-26T06:02:38.592Z,99.90
2019-06-26T06:05:09.294Z,99.90
2019-06-26T06:07:37.983Z,99.90
2019-06-26T06:10:07.642Z,99.90
2019-06-26T06:12:36.641Z,99.90
2019-06-26T06:15:09.039Z,99.90
2019-06-26T06:17:37.849Z,99.90
2019-06-26T06:20:07.863Z,99.90
2019-06-26T06:22:36.967Z,99.90
2019-06-26T06:25:07.860Z,99.90
2019-06-26T06:27:36.682Z,99.90
2019-06-26T06:30:09.308Z,99.90
2019-06-26T06:32:38.905Z,99.90
2019-06-26T06:35:08.405Z,99.90
2019-06-26T06:37:37.701Z,99.90
2019-06-26T06:40:07.943Z,99.90
2019-06-26T06:42:36.599Z,99.90
2019-06-26T06:45:09.160Z,99.90
2019-06-26T06:47:37.848Z,99.90
2019-06-26T06:50:06.675Z,99.90
2019-06-26T06:52:36.941Z,99.90
2019-06-26T06:55:07.292Z,99.90
2019-06-26T06:57:36.149Z,99.90
2019-06-26T07:00:07.021Z,99.90
2019-06-26T07:02:35.871Z,99.90
2019-06-26T07:05:08.593Z,99.90
2019-06-26T07:07:37.287Z,99.90
2019-06-26T07:10:07.737Z,99.90
2019-06-26T07:12:36.495Z,99.90
2019-06-26T07:15:09.548Z,99.90
2019-06-26T07:17:38.468Z,99.90
2019-06-26T07:20:07.672Z,99.90
2019-06-26T07:22:36.364Z,99.90
2019-06-26T07:25:05.647Z,99.90
2019-06-26T07:27:35.136Z,99.90
2019-06-26T07:30:05.471Z,99.90
2019-06-26T07:32:34.310Z,99.90
2019-06-26T07:35:05.237Z,99.90
2019-06-26T07:37:33.869Z,99.90
2019-06-26T07:40:03.507Z,99.90
2019-06-26T07:42:32.137Z,99.90
2019-06-26T07:45:00.815Z,99.90
2019-06-26T07:47:42.531Z,99.90
2019-06-26T07:49:59.918Z,99.90
2019-06-26T07:52:28.883Z,99.90
2019-06-26T07:54:57.506Z,99.90
2019-06-26T07:57:26.557Z,99.90
2019-06-26T07:59:55.248Z,99.90
2019-06-26T08:02:24.107Z,99.90
2019-06-26T08:04:52.844Z,99.90
2019-06-26T08:07:21.496Z,99.90
2019-06-26T08:09:50.254Z,99.40
2019-06-26T08:12:18.890Z,99.50
2019-06-26T08:14:47.584Z,98.90
2019-06-26T08:17:16.361Z,99.50
2019-06-26T08:19:45.058Z,99.30
2019-06-26T08:22:13.789Z,98.90
2019-06-26T08:24:42.440Z,97.90
2019-06-26T08:27:13.158Z,98.00
2019-06-26T08:29:41.645Z,97.60
2019-06-26T08:32:10.317Z,96.70
2019-06-26T08:34:39.040Z,96.30
2019-06-26T08:37:07.917Z,96.90
2019-06-26T08:39:36.582Z,95.70
2019-06-26T08:42:05.370Z,96.00
2019-06-26T08:44:34.167Z,95.30
2019-06-26T08:47:02.848Z,94.80
2019-06-26T08:49:31.545Z,95.30
2019-06-26T08:52:00.494Z,95.30
2019-06-26T08:54:29.336Z,95.20
2019-06-26T08:56:58.009Z,94.60
2019-06-26T08:59:26.695Z,95.20
2019-06-26T09:01:55.373Z,95.10
2019-06-26T09:04:24.120Z,95.40
2019-06-26T09:06:52.792Z,94.40
2019-06-26T09:09:21.462Z,93.10
2019-06-26T09:11:50.149Z,92.90
2019-06-26T09:14:18.824Z,92.60
2019-06-26T09:16:47.444Z,92.40
2019-06-26T09:19:16.073Z,91.70
2019-06-26T09:21:44.875Z,90.90
2019-06-26T09:24:13.570Z,91.30
2019-06-26T09:26:42.324Z,91.20
2019-06-26T09:29:11.029Z,89.90
2019-06-26T09:31:39.712Z,90.30
2019-06-26T09:34:08.374Z,89.90
2019-06-26T09:36:37.083Z,88.80
2019-06-26T09:39:07.954Z,90.30
2019-06-26T09:41:36.823Z,88.40
2019-06-26T09:44:07.135Z,83.00
2019-06-26T09:46:35.752Z,79.90
2019-06-26T09:49:04.482Z,77.80
2019-06-26T09:51:33.194Z,76.60
2019-06-26T09:54:02.636Z,79.20
2019-06-26T09:56:31.373Z,77.60
2019-06-26T09:59:00.072Z,79.60
2019-06-26T10:01:28.693Z,83.10
2019-06-26T10:03:57.363Z,81.00
2019-06-26T10:06:25.979Z,76.10
2019-06-26T10:08:54.850Z,75.30
2019-06-26T10:11:23.546Z,74.70
2019-06-26T10:13:52.160Z,74.40
2019-06-26T10:16:20.888Z,73.80
2019-06-26T10:18:49.573Z,73.00
2019-06-26T10:21:18.237Z,72.80
2019-06-26T10:23:46.902Z,72.60
2019-06-26T10:26:15.525Z,72.50
2019-06-26T10:28:44.215Z,73.00
2019-06-26T10:31:12.994Z,72.60
2019-06-26T10:33:41.661Z,71.40
2019-06-26T10:36:10.468Z,71.50
2019-06-26T10:38:39.157Z,72.40
2019-06-26T10:41:07.774Z,71.40
2019-06-26T10:43:36.439Z,72.60
2019-06-26T10:46:05.602Z,71.00
2019-06-26T10:48:34.328Z,71.80
2019-06-26T10:51:02.951Z,72.30
2019-06-26T10:53:31.617Z,71.30
2019-06-26T10:56:00.283Z,71.30
2019-06-26T10:58:29.026Z,71.20
2019-06-26T11:00:57.644Z,72.70
2019-06-26T11:03:26.446Z,70.90
2019-06-26T11:05:55.176Z,71.40
2019-06-26T11:08:23.833Z,70.70
2019-06-26T11:10:52.452Z,68.90
2019-06-26T11:13:21.390Z,68.00
2019-06-26T11:15:50.162Z,68.40
2019-06-26T11:18:19.156Z,68.60
2019-06-26T11:20:47.847Z,67.80
2019-06-26T11:23:16.538Z,68.30
2019-06-26T11:25:45.207Z,68.60
2019-06-26T11:28:13.899Z,67.00
2019-06-26T11:30:42.569Z,66.90
2019-06-26T11:33:11.264Z,66.20
2019-06-26T11:35:39.972Z,66.10
2019-06-26T11:38:08.609Z,66.40
2019-06-26T11:40:37.361Z,66.70
2019-06-26T11:43:06.126Z,67.70
2019-06-26T11:45:34.791Z,66.50
2019-06-26T11:48:03.909Z,66.70
2019-06-26T11:50:32.788Z,65.60
2019-06-26T11:53:01.459Z,64.40
2019-06-26T11:55:30.172Z,65.70
2019-06-26T11:57:58.866Z,65.30
2019-06-26T12:00:28.091Z,64.60
2019-06-26T12:02:57.342Z,66.20
2019-06-26T12:05:26.769Z,66.50
2019-06-26T12:07:55.949Z,66.00
2019-06-26T12:10:24.851Z,65.40
2019-06-26T12:12:53.464Z,66.00
2019-06-26T12:15:23.036Z,64.80
2019-06-26T12:17:51.697Z,67.00
2019-06-26T12:20:21.448Z,64.60
2019-06-26T12:22:50.059Z,64.20
2019-06-26T12:25:18.978Z,64.20
2019-06-26T12:27:47.638Z,64.60
2019-06-26T12:30:16.690Z,62.40
2019-06-26T12:33:01.551Z,62.00
2019-06-26T12:35:16.249Z,63.00
2019-06-26T12:37:45.081Z,60.50
2019-06-26T12:40:15.337Z,61.40
2019-06-26T12:42:44.019Z,61.70
2019-06-26T12:45:13.370Z,60.80
2019-06-26T12:47:42.102Z,61.00
2019-06-26T12:50:12.932Z,60.50
2019-06-26T12:52:41.728Z,61.10
2019-06-26T12:55:10.825Z,60.50
2019-06-26T12:57:39.478Z,60.50
2019-06-26T13:00:13.194Z,59.50
2019-06-26T13:02:41.923Z,59.70
2019-06-26T13:05:10.994Z,59.10
2019-06-26T13:07:39.660Z,58.90
2019-06-26T13:10:09.806Z,59.40
2019-06-26T13:12:38.419Z,59.80
2019-06-26T13:15:08.400Z,58.30
2019-06-26T13:17:37.033Z,58.70
2019-06-26T13:20:10.492Z,58.30
2019-06-26T13:22:39.626Z,58.10
2019-06-26T13:25:09.057Z,57.70
2019-06-26T13:27:37.777Z,57.00
2019-06-26T13:30:08.517Z,55.10
2019-06-26T13:32:37.301Z,54.10
2019-06-26T13:35:08.429Z,52.80
2019-06-26T13:37:37.126Z,52.50
2019-06-26T13:40:08.886Z,51.50
2019-06-26T13:42:37.575Z,50.80
2019-06-26T13:45:09.548Z,48.90
2019-06-26T13:47:38.228Z,48.50
2019-06-26T13:50:08.049Z,47.30
2019-06-26T13:52:36.690Z,46.30
2019-06-26T13:55:07.568Z,46.40
2019-06-26T13:57:36.184Z,46.00
2019-06-26T14:00:10.225Z,46.30
2019-06-26T14:02:38.912Z,45.20
2019-06-26T14:05:10.076Z,45.10
2019-06-26T14:07:38.769Z,44.10
2019-06-26T14:10:08.647Z,43.50
2019-06-26T14:12:37.541Z,44.20
2019-06-26T14:15:07.808Z,44.10
2019-06-26T14:17:36.490Z,45.80
2019-06-26T14:20:08.308Z,46.50
2019-06-26T14:22:36.995Z,45.40
2019-06-26T14:25:07.675Z,44.40
2019-06-26T14:27:36.407Z,44.30
2019-06-26T14:30:08.355Z,44.10
2019-06-26T14:32:37.027Z,42.60
2019-06-26T14:35:06.510Z,42.20
2019-06-26T14:37:35.192Z,42.20
2019-06-26T14:40:07.427Z,42.70
2019-06-26T14:42:36.044Z,43.80
2019-06-26T14:45:07.234Z,44.20
2019-06-26T14:47:35.914Z,43.20
2019-06-26T14:50:06.400Z,43.00
2019-06-26T14:52:35.292Z,42.10
2019-06-26T14:55:06.118Z,40.90
2019-06-26T14:57:35.126Z,39.90
2019-06-26T15:00:06.277Z,39.70
2019-06-26T15:02:34.158Z,38.90
2019-06-26T15:05:04.223Z,38.50
2019-06-26T15:07:32.941Z,36.50
2019-06-26T15:10:01.560Z,36.90
2019-06-26T15:12:30.316Z,37.10
2019-06-26T15:14:59.005Z,37.40
2019-06-26T15:17:27.679Z,38.30
2019-06-26T15:19:56.377Z,38.40
2019-06-26T15:22:25.074Z,38.80
2019-06-26T15:24:53.687Z,38.70
2019-06-26T15:27:22.309Z,38.90
2019-06-26T15:29:50.995Z,40.60
2019-06-26T15:32:19.615Z,41.80
2019-06-26T15:34:48.262Z,41.20
2019-06-26T15:37:16.958Z,41.20
2019-06-26T15:39:45.641Z,40.80
2019-06-26T15:42:14.320Z,40.70
2019-06-26T15:44:43.007Z,40.70
2019-06-26T15:47:11.720Z,40.40
2019-06-26T15:49:40.395Z,40.60
2019-06-26T15:52:15.010Z,40.90
2019-06-26T15:54:39.482Z,43.00
2019-06-26T15:57:08.104Z,43.40
2019-06-26T15:59:36.768Z,42.80
2019-06-26T16:02:05.464Z,43.00
2019-06-26T16:04:36.000Z,43.00
2019-06-26T16:07:05.062Z,43.10
2019-06-26T16:09:33.748Z,43.00
2019-06-26T16:12:02.491Z,43.30
2019-06-26T16:14:31.288Z,43.30
2019-06-26T16:17:00.034Z,43.60
2019-06-26T16:19:28.766Z,43.10
2019-06-26T16:21:57.391Z,43.80
2019-06-26T16:24:26.123Z,43.40
2019-06-26T16:26:54.904Z,43.90
2019-06-26T16:29:23.573Z,45.00
2019-06-26T16:31:52.266Z,45.40
2019-06-26T16:34:21.043Z,46.60
2019-06-26T16:36:49.750Z,47.20
2019-06-26T16:39:18.434Z,47.70
2019-06-26T16:41:49.128Z,47.10
2019-06-26T16:44:17.614Z,46.00
2019-06-26T16:46:46.336Z,47.40
2019-06-26T16:49:15.006Z,45.90
2019-06-26T16:51:43.619Z,45.40
2019-06-26T16:54:12.605Z,46.50
2019-06-26T16:56:41.226Z,46.60
2019-06-26T16:59:09.922Z,47.60
2019-06-26T17:01:38.657Z,48.50
2019-06-26T17:04:07.345Z,47.90
2019-06-26T17:06:36.018Z,47.90
2019-06-26T17:09:07.071Z,47.80
2019-06-26T17:11:35.703Z,48.00
2019-06-26T17:14:04.956Z,47.80
2019-06-26T17:16:33.641Z,48.30
2019-06-26T17:19:02.316Z,48.30
2019-06-26T17:21:31.131Z,47.70
2019-06-26T17:23:59.817Z,48.20
2019-06-26T17:26:28.593Z,47.80
2019-06-26T17:28:57.250Z,47.90
2019-06-26T17:31:27.284Z,47.70
2019-06-26T17:33:55.906Z,47.90
2019-06-26T17:36:24.531Z,48.00
2019-06-26T17:38:53.251Z,47.90
2019-06-26T17:41:21.941Z,48.60
2019-06-26T17:43:50.728Z,48.50
2019-06-26T17:46:19.403Z,49.50
2019-06-26T17:48:48.029Z,49.80
2019-06-26T17:51:16.713Z,50.30
2019-06-26T17:53:45.428Z,50.60
2019-06-26T17:56:14.158Z,51.60
2019-06-26T17:58:42.776Z,50.80
2019-06-26T18:01:11.450Z,51.80
2019-06-26T18:03:40.217Z,51.80
2019-06-26T18:06:08.907Z,52.20
2019-06-26T18:08:37.552Z,53.00
2019-06-26T18:11:06.583Z,53.60
2019-06-26T18:13:35.372Z,53.70
2019-06-26T18:16:04.158Z,54.30
2019-06-26T18:18:32.784Z,54.30
2019-06-26T18:21:01.950Z,54.80
2019-06-26T18:23:37.921Z,55.10
2019-06-26T18:26:12.598Z,54.70
2019-06-26T18:28:32.366Z,55.60
2019-06-26T18:31:01.817Z,56.00
2019-06-26T18:33:30.472Z,56.00
2019-06-26T18:35:59.201Z,55.80
2019-06-26T18:38:27.869Z,56.00
2019-06-26T18:40:56.492Z,56.20
2019-06-26T18:43:25.240Z,56.50
2019-06-26T18:45:53.857Z,56.40
2019-06-26T18:48:24.920Z,56.80
2019-06-26T18:50:53.043Z,56.50
2019-06-26T18:53:21.721Z,56.30
2019-06-26T18:55:50.399Z,56.60
2019-06-26T18:58:19.065Z,56.10
2019-06-26T19:00:47.734Z,55.90
2019-06-26T19:03:16.476Z,56.20
2019-06-26T19:05:45.161Z,55.90
2019-06-26T19:08:13.771Z,56.30
2019-06-26T19:10:43.382Z,56.00
2019-06-26T19:13:12.002Z,55.70
2019-06-26T19:15:41.652Z,55.70
2019-06-26T19:18:10.323Z,55.70
2019-06-26T19:20:39.018Z,55.60
2019-06-26T19:23:07.707Z,55.40
2019-06-26T19:25:36.390Z,55.10
2019-06-26T19:28:05.075Z,55.00
2019-06-26T19:30:33.771Z,54.80
2019-06-26T19:33:02.548Z,55.00
2019-06-26T19:35:31.225Z,55.10
2019-06-26T19:38:00.078Z,54.90
2019-06-26T19:40:28.980Z,55.20
2019-06-26T19:42:57.700Z,55.20
2019-06-26T19:45:27.210Z,55.20
2019-06-26T19:47:55.833Z,55.30
2019-06-26T19:50:24.500Z,55.40
2019-06-26T19:52:53.175Z,55.50
2019-06-26T19:55:21.786Z,55.80
2019-06-26T19:57:50.645Z,55.80
2019-06-26T20:00:19.429Z,56.10
2019-06-26T20:02:48.059Z,56.30
2019-06-26T20:05:17.618Z,56.50
2019-06-26T20:07:46.277Z,56.50
2019-06-26T20:10:15.418Z,56.70
2019-06-26T20:12:44.090Z,57.00
2019-06-26T20:15:12.885Z,57.20
2019-06-26T20:17:41.552Z,57.50
2019-06-26T20:20:10.864Z,57.90
2019-06-26T20:22:39.533Z,58.70
2019-06-26T20:25:09.561Z,59.40
2019-06-26T20:27:38.380Z,59.80
2019-06-26T20:30:09.706Z,60.50
2019-06-26T20:32:38.604Z,60.90
2019-06-26T20:35:07.945Z,61.50
2019-06-26T20:37:36.896Z,61.90
2019-06-26T20:40:07.831Z,62.40
2019-06-26T20:42:36.498Z,62.90
2019-06-26T20:45:06.837Z,63.30
2019-06-26T20:47:35.534Z,63.80
2019-06-26T20:50:06.886Z,64.30
2019-06-26T20:52:35.626Z,64.90
2019-06-26T20:55:06.714Z,65.60
2019-06-26T20:57:35.394Z,66.10
2019-06-26T21:00:05.725Z,66.50
2019-06-26T21:02:34.399Z,67.20
2019-06-26T21:05:06.606Z,67.70
2019-06-26T21:07:35.269Z,68.00
2019-06-26T21:10:04.894Z,68.20
2019-06-26T21:12:33.860Z,68.50
2019-06-26T21:15:02.855Z,68.60
2019-06-26T21:17:31.541Z,69.20
2019-06-26T21:20:00.193Z,69.70
2019-06-26T21:22:28.917Z,70.00
2019-06-26T21:24:57.666Z,70.40
2019-06-26T21:27:26.363Z,70.90
2019-06-26T21:29:55.073Z,72.20
2019-06-26T21:32:23.757Z,72.30
2019-06-26T21:34:52.458Z,72.90
2019-06-26T21:37:21.202Z,73.00
2019-06-26T21:39:49.942Z,73.10
2019-06-26T21:42:18.572Z,73.30
2019-06-26T21:44:47.241Z,73.70
2019-06-26T21:47:15.910Z,74.10
2019-06-26T21:49:44.578Z,74.60
2019-06-26T21:52:13.198Z,74.60
2019-06-26T21:54:41.936Z,75.00
2019-06-26T21:57:10.623Z,75.70
2019-06-26T21:59:39.241Z,76.20
2019-06-26T22:02:07.912Z,76.80
2019-06-26T22:04:36.542Z,77.20
2019-06-26T22:07:05.342Z,78.00
2019-06-26T22:09:34.032Z,78.10
2019-06-26T22:12:02.844Z,78.80
2019-06-26T22:14:31.543Z,78.90
2019-06-26T22:17:00.317Z,79.40
2019-06-26T22:19:28.939Z,79.70
2019-06-26T22:21:57.603Z,79.00
2019-06-26T22:24:26.272Z,78.70
2019-06-26T22:26:54.951Z,78.70
2019-06-26T22:29:23.617Z,78.50
2019-06-26T22:31:52.315Z,77.50
2019-06-26T22:34:21.706Z,77.10
2019-06-26T22:36:52.146Z,77.00
2019-06-26T22:39:20.766Z,76.90
2019-06-26T22:41:49.439Z,76.80
2019-06-26T22:44:18.058Z,77.10
2019-06-26T22:46:46.741Z,77.50
2019-06-26T22:49:15.391Z,77.10
2019-06-26T22:51:44.107Z,76.80
2019-06-26T22:54:12.865Z,77.20
2019-06-26T22:56:41.534Z,77.00
2019-06-26T22:59:10.203Z,77.10
2019-06-26T23:01:38.829Z,77.10
2019-06-26T23:04:07.494Z,77.10
2019-06-26T23:06:37.507Z,76.10
2019-06-26T23:09:07.542Z,76.20
2019-06-26T23:11:36.227Z,75.90
2019-06-26T23:14:04.961Z,75.30
2019-06-26T23:16:33.606Z,75.20
2019-06-26T23:19:02.287Z,75.20
2019-06-26T23:21:30.972Z,75.00
2019-06-26T23:23:59.642Z,75.00
2019-06-26T23:26:28.263Z,74.60
2019-06-26T23:28:56.899Z,74.50
2019-06-26T23:31:25.621Z,74.20
2019-06-26T23:33:54.301Z,73.60
2019-06-26T23:36:22.961Z,73.70
2019-06-26T23:38:51.642Z,74.10
2019-06-26T23:41:20.361Z,74.00
2019-06-26T23:43:49.048Z,74.20
2019-06-26T23:46:17.713Z,73.90
2019-06-26T23:48:46.381Z,73.50
2019-06-26T23:51:15.002Z,74.20
2019-06-26T23:53:43.688Z,74.00
2019-06-26T23:56:12.356Z,74.50
2019-06-26T23:58:40.976Z,74.40
